Time;durP1;ratioP1;P1;durP2;ratioP2;P2;SDS_P1;SDS_P2;PMS_P1;PMS_P2;Temp;Humidity;BMP_temperature;BMP_pressure;BME280_temperature;BME280_humidity;BME280_pressure;Samples;Min_cycle;Max_cycle;Signal;HPM_P1;HPM_P2
2021/10/29 00:00:07;;;;;;;;;;;3.80;99.90;;;;;;8398804;28;19908;-67
2021/10/29 00:04:08;;;;;;;;;;;3.90;99.90;;;;;;8379527;28;20002;-67
2021/10/29 00:08:08;;;;;;;;;;;3.80;99.90;;;;;;8397262;28;20201;-67
2021/10/29 00:12:09;;;;;;;;;;;3.80;99.90;;;;;;8395565;28;19904;-67
2021/10/29 00:16:10;;;;;;;;;;;3.80;99.90;;;;;;8396984;28;19948;-67
2021/10/29 00:20:11;;;;;;;;;;;3.80;99.90;;;;;;8378607;28;20323;-67
2021/10/29 00:24:11;;;;;;;;;;;3.70;99.90;;;;;;8396581;28;20361;-66
2021/10/29 00:28:12;;;;;;;;;;;3.80;99.90;;;;;;8396525;28;19905;-66
2021/10/29 00:32:12;;;;;;;;;;;3.80;99.90;;;;;;8396032;28;19905;-67
2021/10/29 00:36:12;;;;;;;;;;;3.80;99.90;;;;;;8396625;28;19909;-66
2021/10/29 00:40:13;;;;;;;;;;;3.80;99.90;;;;;;8378132;28;19904;-66
2021/10/29 00:44:20;;;;;;;;;;;3.90;99.90;;;;;;8395799;28;19920;-67
2021/10/29 00:48:20;;;;;;;;;;;3.80;99.90;;;;;;8396481;28;19931;-66
2021/10/29 00:52:20;;;;;;;;;;;3.80;99.90;;;;;;8395550;28;19995;-66
2021/10/29 00:56:21;;;;;;;;;;;4.00;99.90;;;;;;8395554;28;19909;-66
2021/10/29 01:00:23;;;;;;;;;;;4.10;99.90;;;;;;8395744;28;20390;-66
2021/10/29 01:04:24;;;;;;;;;;;4.00;99.90;;;;;;8394940;28;19987;-66
2021/10/29 01:08:24;;;;;;;;;;;3.90;99.90;;;;;;8395049;28;20002;-66
2021/10/29 01:12:25;;;;;;;;;;;3.90;99.90;;;;;;8395383;28;19904;-66
2021/10/29 01:16:26;;;;;;;;;;;3.90;99.90;;;;;;8394775;28;19955;-66
2021/10/29 01:20:26;;;;;;;;;;;3.80;99.90;;;;;;8394829;28;19904;-67
2021/10/29 01:24:27;;;;;;;;;;;3.90;99.90;;;;;;8394392;28;19908;-66
2021/10/29 01:28:28;;;;;;;;;;;3.80;99.90;;;;;;8393609;28;19958;-66
2021/10/29 01:32:28;;;;;;;;;;;3.80;99.90;;;;;;8393148;28;20423;-66
2021/10/29 01:36:29;;;;;;;;;;;3.90;99.90;;;;;;8376489;28;19955;-66
2021/10/29 01:40:29;;;;;;;;;;;3.90;99.90;;;;;;8394477;28;19904;-66
2021/10/29 01:44:30;;;;;;;;;;;3.70;99.90;;;;;;8375994;28;19912;-66
2021/10/29 01:48:30;;;;;;;;;;;3.60;99.90;;;;;;8394021;28;19905;-66
2021/10/29 01:52:31;;;;;;;;;;;3.60;99.90;;;;;;8392732;28;19904;-66
2021/10/29 01:56:31;;;;;;;;;;;3.40;99.90;;;;;;8393835;28;19931;-66
2021/10/29 02:00:32;;;;;;;;;;;3.30;99.90;;;;;;8393269;28;19951;-66
2021/10/29 02:04:32;;;;;;;;;;;3.30;99.90;;;;;;8375419;28;19908;-66
2021/10/29 02:08:33;;;;;;;;;;;3.60;99.90;;;;;;8393139;28;19904;-66
2021/10/29 02:12:33;;;;;;;;;;;3.30;99.90;;;;;;8375708;28;20280;-66
2021/10/29 02:16:34;;;;;;;;;;;3.30;99.90;;;;;;8392956;28;20086;-66
2021/10/29 02:20:34;;;;;;;;;;;3.20;99.90;;;;;;8392904;28;20276;-66
2021/10/29 02:24:35;;;;;;;;;;;3.20;99.90;;;;;;8393000;28;19905;-66
2021/10/29 02:28:36;;;;;;;;;;;3.20;99.90;;;;;;8392957;28;19904;-66
2021/10/29 02:32:36;;;;;;;;;;;3.20;99.90;;;;;;8393189;28;19912;-66
2021/10/29 02:36:36;;;;;;;;;;;3.10;99.90;;;;;;8393167;28;19923;-66
2021/10/29 02:40:37;;;;;;;;;;;3.30;99.90;;;;;;8392542;28;19947;-66
2021/10/29 02:44:38;;;;;;;;;;;3.40;99.90;;;;;;8430858;22;19920;-62
2021/10/29 02:48:38;;;;;;;;;;;3.40;99.90;;;;;;8425821;28;19998;-62
2021/10/29 02:52:38;;;;;;;;;;;3.40;99.90;;;;;;8425872;28;20324;-62
2021/10/29 02:56:39;;;;;;;;;;;3.40;99.90;;;;;;8423768;28;20326;-62
2021/10/29 03:00:39;;;;;;;;;;;3.40;99.90;;;;;;8392568;28;19905;-63
2021/10/29 03:04:40;;;;;;;;;;;3.30;99.90;;;;;;8392271;28;19911;-62
2021/10/29 03:08:41;;;;;;;;;;;3.40;99.90;;;;;;8392349;28;19993;-62
2021/10/29 03:12:41;;;;;;;;;;;3.50;99.90;;;;;;8392349;28;19904;-62
2021/10/29 03:16:42;;;;;;;;;;;3.50;99.90;;;;;;8392293;28;19915;-62
2021/10/29 03:20:43;;;;;;;;;;;3.50;99.90;;;;;;8392365;28;19905;-62
2021/10/29 03:24:43;;;;;;;;;;;3.30;99.90;;;;;;8391819;28;19980;-62
2021/10/29 03:28:44;;;;;;;;;;;3.60;99.90;;;;;;8377130;28;19966;-62
2021/10/29 03:32:45;;;;;;;;;;;3.70;99.90;;;;;;8398581;28;19911;-62
2021/10/29 03:36:46;;;;;;;;;;;3.80;99.90;;;;;;8406842;28;20333;-62
2021/10/29 03:40:58;;;;;;;;;;;3.70;99.90;;;;;;8413921;28;19951;-62
2021/10/29 03:53:24;;;;;;;;;;;3.50;99.90;;;;;;8406353;28;19919;-62
2021/10/29 03:57:26;;;;;;;;;;;3.50;99.90;;;;;;8401076;28;20054;-62
2021/10/29 04:01:26;;;;;;;;;;;3.60;99.90;;;;;;8379477;28;19958;-62
2021/10/29 04:05:31;;;;;;;;;;;3.60;99.90;;;;;;8402092;28;19908;-65
2021/10/29 04:09:32;;;;;;;;;;;3.70;99.90;;;;;;8408226;28;19951;-64
2021/10/29 04:13:40;;;;;;;;;;;3.70;99.90;;;;;;8409116;28;19908;-65
2021/10/29 04:17:40;;;;;;;;;;;3.60;99.90;;;;;;8406867;28;20018;-65
2021/10/29 04:21:41;;;;;;;;;;;3.70;99.90;;;;;;8397407;28;20364;-65
2021/10/29 04:25:41;;;;;;;;;;;3.80;99.90;;;;;;8396718;28;19946;-65
2021/10/29 04:29:42;;;;;;;;;;;3.80;99.90;;;;;;8396151;28;19905;-65
2021/10/29 04:33:42;;;;;;;;;;;3.80;99.90;;;;;;8417377;28;20356;-65
2021/10/29 04:37:43;;;;;;;;;;;3.90;99.90;;;;;;8429283;28;19996;-65
2021/10/29 04:41:47;;;;;;;;;;;3.80;99.90;;;;;;8429513;28;19904;-65
2021/10/29 04:45:47;;;;;;;;;;;3.70;99.90;;;;;;8426677;28;19919;-65
2021/10/29 04:49:48;;;;;;;;;;;3.70;99.90;;;;;;8400907;28;19908;-65
2021/10/29 04:53:48;;;;;;;;;;;3.60;99.90;;;;;;8399937;28;20252;-65
2021/10/29 04:57:49;;;;;;;;;;;3.60;99.90;;;;;;8409844;28;19941;-65
2021/10/29 05:01:49;;;;;;;;;;;3.50;99.90;;;;;;8401064;28;19962;-64
2021/10/29 05:05:50;;;;;;;;;;;3.80;99.90;;;;;;8407609;28;19915;-65
2021/10/29 05:09:50;;;;;;;;;;;3.80;99.90;;;;;;8407623;28;20442;-64
2021/10/29 05:13:50;;;;;;;;;;;3.80;99.90;;;;;;8402573;28;19909;-65
2021/10/29 05:17:52;;;;;;;;;;;3.60;99.90;;;;;;8399193;28;19918;-65
2021/10/29 05:21:52;;;;;;;;;;;3.60;99.90;;;;;;8383817;28;19908;-64
2021/10/29 05:25:53;;;;;;;;;;;3.50;99.90;;;;;;8418862;28;20003;-64
2021/10/29 05:29:53;;;;;;;;;;;3.40;99.90;;;;;;8422609;28;20341;-65
2021/10/29 05:33:54;;;;;;;;;;;3.30;99.90;;;;;;8401406;28;19916;-65
2021/10/29 05:37:54;;;;;;;;;;;3.20;99.90;;;;;;8407599;28;19916;-65
2021/10/29 05:41:55;;;;;;;;;;;3.10;99.90;;;;;;8408575;28;19924;-65
2021/10/29 05:45:55;;;;;;;;;;;3.10;99.90;;;;;;8393250;28;20373;-65
2021/10/29 05:49:56;;;;;;;;;;;2.90;99.90;;;;;;8410002;28;20032;-65
2021/10/29 05:58:06;;;;;;;;;;;2.80;99.90;;;;;;8412781;28;20446;-64
2021/10/29 06:02:07;;;;;;;;;;;2.80;99.90;;;;;;8396003;28;19920;-67
2021/10/29 06:06:07;;;;;;;;;;;2.90;99.90;;;;;;8392660;28;19962;-67
2021/10/29 06:10:09;;;;;;;;;;;3.00;99.90;;;;;;8396488;28;19950;-67
2021/10/29 06:14:10;;;;;;;;;;;2.90;99.90;;;;;;8380456;28;19912;-60
2021/10/29 06:18:22;;;;;;;;;;;2.80;99.90;;;;;;8405521;28;19912;-58
2021/10/29 06:22:26;;;;;;;;;;;2.80;99.90;;;;;;8401227;28;20287;-61
2021/10/29 06:26:28;;;;;;;;;;;2.70;99.90;;;;;;8403662;28;19912;-60
2021/10/29 06:30:29;;;;;;;;;;;2.70;99.90;;;;;;8403965;28;20364;-61
2021/10/29 06:34:31;;;;;;;;;;;2.60;99.90;;;;;;8401537;28;20284;-61
2021/10/29 06:38:32;;;;;;;;;;;2.70;99.90;;;;;;8403201;28;19912;-60
2021/10/29 06:42:35;;;;;;;;;;;2.70;99.90;;;;;;8403594;28;19915;-59
2021/10/29 07:42:14;;;;;;;;;;;3.70;99.90;;;;;;8414913;28;19967;-60
2021/10/29 07:46:15;;;;;;;;;;;3.70;99.90;;;;;;8406792;28;19912;-60
2021/10/29 07:50:17;;;;;;;;;;;3.80;99.90;;;;;;8401007;28;20353;-60
2021/10/29 07:54:17;;;;;;;;;;;4.10;99.90;;;;;;8411638;28;20296;-60
2021/10/29 07:58:18;;;;;;;;;;;4.20;99.90;;;;;;8404746;28;19922;-61
2021/10/29 08:02:19;;;;;;;;;;;4.40;99.90;;;;;;8404894;28;19904;-60
2021/10/29 08:06:19;;;;;;;;;;;4.50;99.90;;;;;;8399938;28;20437;-61
2021/10/29 08:10:20;;;;;;;;;;;4.50;99.90;;;;;;8401954;28;19908;-60
2021/10/29 08:14:22;;;;;;;;;;;4.70;99.90;;;;;;8407324;28;20348;-62
2021/10/29 08:18:23;;;;;;;;;;;5.00;99.90;;;;;;8408899;28;19917;-59
2021/10/29 08:22:23;;;;;;;;;;;4.90;99.90;;;;;;8415974;28;20375;-60
2021/10/29 08:26:24;;;;;;;;;;;5.00;99.90;;;;;;8416230;28;20394;-60
2021/10/29 08:30:26;;;;;;;;;;;5.00;99.90;;;;;;8394083;28;19911;-59
2021/10/29 08:34:27;;;;;;;;;;;5.30;99.90;;;;;;8394704;28;19955;-59
2021/10/29 08:38:29;;;;;;;;;;;5.50;99.90;;;;;;8380811;28;19923;-62
2021/10/29 08:42:29;;;;;;;;;;;5.40;99.90;;;;;;8408163;28;19916;-62
2021/10/29 08:46:30;;;;;;;;;;;5.50;99.90;;;;;;8406853;28;19916;-59
2021/10/29 08:50:30;;;;;;;;;;;5.50;99.90;;;;;;8404330;28;19951;-60
2021/10/29 08:54:31;;;;;;;;;;;5.90;99.90;;;;;;8407565;28;19908;-61
2021/10/29 08:58:35;;;;;;;;;;;6.00;99.90;;;;;;8406225;28;19908;-61
2021/10/29 09:02:40;;;;;;;;;;;6.10;99.90;;;;;;8387589;28;19912;-60
2021/10/29 09:06:56;;;;;;;;;;;6.20;99.90;;;;;;8410050;28;19908;-60
2021/10/29 09:32:43;;;;;;;;;;;7.20;99.90;;;;;;8390442;28;19932;-59
2021/10/29 09:36:49;;;;;;;;;;;7.30;99.90;;;;;;8408636;28;20279;-61
2021/10/29 09:40:54;;;;;;;;;;;7.60;99.90;;;;;;8407651;28;19943;-59
2021/10/29 09:44:55;;;;;;;;;;;7.70;99.90;;;;;;8402359;28;19912;-60
2021/10/29 09:49:04;;;;;;;;;;;7.90;99.90;;;;;;8389222;28;19977;-61
2021/10/29 09:53:22;;;;;;;;;;;8.30;99.90;;;;;;8388732;28;19955;-61
2021/10/29 09:57:23;;;;;;;;;;;7.90;99.90;;;;;;8397665;28;19920;-61
2021/10/29 10:01:33;;;;;;;;;;;7.70;99.90;;;;;;8405779;28;20128;-62
2021/10/29 10:05:34;;;;;;;;;;;8.00;99.90;;;;;;8415764;28;20451;-61
2021/10/29 10:09:35;;;;;;;;;;;8.10;99.90;;;;;;8396967;28;19908;-61
2021/10/29 10:13:38;;;;;;;;;;;8.10;99.90;;;;;;8424502;28;20138;-62
2021/10/29 10:17:38;;;;;;;;;;;8.00;99.90;;;;;;8411497;28;19987;-60
2021/10/29 10:21:44;;;;;;;;;;;8.10;99.90;;;;;;8402028;28;19912;-57
2021/10/29 10:47:08;;;;;;;;;;;8.20;99.90;;;;;;8381977;28;19912;-64
2021/10/29 10:51:48;;;;;;;;;;;8.50;99.90;;;;;;8388512;28;19912;-64
2021/10/29 11:00:35;;;;;;;;;;;8.30;99.90;;;;;;8366001;28;20016;-65
2021/10/29 11:04:54;;;;;;;;;;;8.50;99.90;;;;;;8370588;28;19916;-65
2021/10/29 11:13:13;;;;;;;;;;;9.10;99.90;;;;;;8394455;28;19912;-64
2021/10/29 11:17:34;;;;;;;;;;;8.90;99.90;;;;;;8378303;28;19913;-65
2021/10/29 11:21:37;;;;;;;;;;;8.90;99.90;;;;;;8361034;28;20387;-64
2021/10/29 11:25:46;;;;;;;;;;;8.80;99.90;;;;;;8371207;28;20295;-64
2021/10/29 11:29:51;;;;;;;;;;;8.90;99.90;;;;;;8416123;28;20966;-65
2021/10/29 11:33:53;;;;;;;;;;;9.00;99.90;;;;;;8396704;28;19916;-63
2021/10/29 11:37:53;;;;;;;;;;;9.40;99.90;;;;;;8414603;28;19916;-64
2021/10/29 11:41:54;;;;;;;;;;;9.70;99.90;;;;;;8399006;28;20397;-64
2021/10/29 11:45:56;;;;;;;;;;;10.00;99.90;;;;;;8398852;28;19957;-64
2021/10/29 11:50:11;;;;;;;;;;;10.00;99.90;;;;;;8421263;28;19904;-64
2021/10/29 11:54:27;;;;;;;;;;;10.30;99.90;;;;;;8403123;28;19912;-64
2021/10/29 11:58:41;;;;;;;;;;;10.70;99.90;;;;;;8402852;28;20170;-64
2021/10/29 12:07:14;;;;;;;;;;;10.20;99.90;;;;;;8416486;28;19919;-64
2021/10/29 12:11:19;;;;;;;;;;;10.50;99.90;;;;;;8373726;28;19911;-64
2021/10/29 12:15:21;;;;;;;;;;;11.80;99.90;;;;;;8375476;28;20071;-65
2021/10/29 12:19:23;;;;;;;;;;;12.10;99.90;;;;;;8378467;28;19965;-66
2021/10/29 12:23:28;;;;;;;;;;;11.30;99.90;;;;;;8396391;28;20257;-66
2021/10/29 12:27:41;;;;;;;;;;;10.70;99.90;;;;;;8387664;28;20304;-66
2021/10/29 12:32:20;;;;;;;;;;;10.20;99.90;;;;;;8375280;28;19908;-66
2021/10/29 13:02:01;;;;;;;;;;;10.50;99.90;;;;;;8377649;28;19935;-66
2021/10/29 13:06:03;;;;;;;;;;;11.00;99.90;;;;;;8376016;28;20007;-66
2021/10/29 13:10:07;;;;;;;;;;;11.50;99.90;;;;;;8381087;28;19909;-66
2021/10/29 13:14:10;;;;;;;;;;;11.50;99.90;;;;;;8374673;28;20340;-66
2021/10/29 13:18:16;;;;;;;;;;;10.90;99.90;;;;;;8377925;28;19912;-69
2021/10/29 13:34:23;;;;;;;;;;;10.90;99.90;;;;;;8384478;28;19940;-67
2021/10/29 14:01:16;;;;;;;;;;;11.50;99.90;;;;;;8384255;28;20046;-68
2021/10/29 14:31:19;;;;;;;;;;;10.80;99.90;;;;;;8387139;28;19911;-68
2021/10/29 14:43:32;;;;;;;;;;;10.90;99.90;;;;;;8390103;28;20155;-68
2021/10/29 15:17:29;;;;;;;;;;;10.90;99.90;;;;;;8387418;28;19977;-67
2021/10/29 15:50:53;;;;;;;;;;;9.10;99.90;;;;;;8393504;28;19908;-67
2021/10/29 15:55:01;;;;;;;;;;;8.60;99.90;;;;;;8378161;28;20003;-66
2021/10/29 16:03:15;;;;;;;;;;;8.30;99.90;;;;;;8397746;28;20283;-68
2021/10/29 16:20:13;;;;;;;;;;;8.40;99.90;;;;;;8376647;28;19915;-68
2021/10/29 16:24:14;;;;;;;;;;;8.40;99.90;;;;;;8397619;22;20282;-64
2021/10/29 16:28:16;;;;;;;;;;;8.40;99.90;;;;;;8406307;28;19908;-64
2021/10/29 16:32:25;;;;;;;;;;;8.50;99.90;;;;;;8400961;28;20010;-64
2021/10/29 16:36:26;;;;;;;;;;;8.50;99.90;;;;;;8406529;28;19908;-64
2021/10/29 16:40:26;;;;;;;;;;;8.30;99.90;;;;;;8410980;28;20036;-64
2021/10/29 16:44:27;;;;;;;;;;;8.30;99.90;;;;;;8396643;28;19920;-64
2021/10/29 16:48:27;;;;;;;;;;;8.30;99.90;;;;;;8395421;28;19961;-64
2021/10/29 16:52:28;;;;;;;;;;;8.40;99.90;;;;;;8379173;28;19912;-64
2021/10/29 16:56:28;;;;;;;;;;;8.30;99.90;;;;;;8399605;28;19907;-64
2021/10/29 17:00:29;;;;;;;;;;;8.20;99.90;;;;;;8412969;28;19908;-64
2021/10/29 17:04:29;;;;;;;;;;;8.40;99.90;;;;;;8410240;28;20376;-64
2021/10/29 17:08:39;;;;;;;;;;;8.30;99.90;;;;;;8413615;28;19912;-64
2021/10/29 17:12:40;;;;;;;;;;;8.20;99.90;;;;;;8406084;28;20380;-63
2021/10/29 17:16:41;;;;;;;;;;;8.20;99.90;;;;;;8410500;28;19970;-64
2021/10/29 17:20:41;;;;;;;;;;;8.10;99.90;;;;;;8416484;28;20375;-64
2021/10/29 17:24:44;;;;;;;;;;;8.10;99.90;;;;;;8375299;28;19912;-64
2021/10/29 17:28:45;;;;;;;;;;;8.20;99.90;;;;;;8394574;28;19904;-64
2021/10/29 17:32:46;;;;;;;;;;;8.10;99.90;;;;;;8393754;28;19965;-64
2021/10/29 17:36:47;;;;;;;;;;;8.00;99.90;;;;;;8393669;28;19916;-64
2021/10/29 17:40:47;;;;;;;;;;;8.00;99.90;;;;;;8374859;28;19966;-64
2021/10/29 17:44:49;;;;;;;;;;;8.10;99.90;;;;;;8393722;28;19920;-64
2021/10/29 17:48:49;;;;;;;;;;;8.00;99.90;;;;;;8392767;28;20287;-64
2021/10/29 17:52:52;;;;;;;;;;;8.00;99.90;;;;;;8375787;28;20346;-64
2021/10/29 17:56:52;;;;;;;;;;;7.90;99.90;;;;;;8393387;28;19908;-64
2021/10/29 18:00:53;;;;;;;;;;;8.00;99.90;;;;;;8393714;28;19908;-64
2021/10/29 18:04:55;;;;;;;;;;;8.20;99.90;;;;;;8391484;28;19912;-65
2021/10/29 18:09:06;;;;;;;;;;;8.10;99.90;;;;;;8391911;28;20376;-65
2021/10/29 18:13:07;;;;;;;;;;;8.00;99.90;;;;;;8389861;28;19904;-64
2021/10/29 18:17:08;;;;;;;;;;;8.10;99.90;;;;;;8397445;28;19931;-65
2021/10/29 18:21:10;;;;;;;;;;;8.10;99.90;;;;;;8392599;28;19908;-64
2021/10/29 18:25:10;;;;;;;;;;;8.30;99.90;;;;;;8392224;28;20380;-64
2021/10/29 18:29:11;;;;;;;;;;;8.30;99.90;;;;;;8392765;28;19908;-65
2021/10/29 18:33:11;;;;;;;;;;;8.10;99.90;;;;;;8375503;28;19909;-64
2021/10/29 18:37:13;;;;;;;;;;;7.90;99.90;;;;;;8357010;28;20442;-64
2021/10/29 18:41:14;;;;;;;;;;;7.90;99.90;;;;;;8358673;28;20300;-64
2021/10/29 18:45:14;;;;;;;;;;;7.80;99.90;;;;;;8357452;28;20019;-64
2021/10/29 18:49:15;;;;;;;;;;;7.80;99.90;;;;;;8387206;28;19950;-64
2021/10/29 18:53:15;;;;;;;;;;;7.80;99.90;;;;;;8373718;28;19911;-65
2021/10/29 18:57:16;;;;;;;;;;;7.70;99.90;;;;;;8391075;28;19916;-65
2021/10/29 19:01:16;;;;;;;;;;;7.70;99.90;;;;;;8397097;28;19908;-64
2021/10/29 19:05:17;;;;;;;;;;;7.70;99.90;;;;;;8397810;28;19908;-64
2021/10/29 19:09:17;;;;;;;;;;;7.70;99.90;;;;;;8396886;28;19912;-63
2021/10/29 19:13:18;;;;;;;;;;;7.70;99.90;;;;;;8379446;28;19961;-63
2021/10/29 19:17:19;;;;;;;;;;;7.70;99.90;;;;;;8396446;28;19946;-63
2021/10/29 19:21:20;;;;;;;;;;;7.70;99.90;;;;;;8395571;28;19969;-63
2021/10/29 19:25:21;;;;;;;;;;;7.70;99.90;;;;;;8395905;28;19917;-63
2021/10/29 19:29:22;;;;;;;;;;;7.70;99.90;;;;;;8397304;28;20342;-63
2021/10/29 19:33:22;;;;;;;;;;;7.70;99.90;;;;;;8379400;28;20360;-63
2021/10/29 19:37:28;;;;;;;;;;;7.70;99.90;;;;;;8397040;28;20038;-64
2021/10/29 19:41:30;;;;;;;;;;;7.70;99.90;;;;;;8379354;28;19905;-63
2021/10/29 19:45:30;;;;;;;;;;;7.70;99.90;;;;;;8396972;28;20033;-64
2021/10/29 19:49:31;;;;;;;;;;;7.70;99.90;;;;;;8396235;28;20376;-63
2021/10/29 19:53:34;;;;;;;;;;;7.70;99.90;;;;;;8412145;28;19940;-63
2021/10/29 20:01:35;;;;;;;;;;;7.80;99.90;;;;;;8395773;28;19909;-63
2021/10/29 20:05:35;;;;;;;;;;;7.90;99.90;;;;;;8395855;28;20011;-63
2021/10/29 20:09:37;;;;;;;;;;;7.70;99.90;;;;;;8395306;28;19915;-63
2021/10/29 20:13:37;;;;;;;;;;;7.60;99.90;;;;;;8396576;28;19908;-62
2021/10/29 20:17:39;;;;;;;;;;;7.50;99.90;;;;;;8396291;28;19912;-63
2021/10/29 20:21:40;;;;;;;;;;;7.40;99.90;;;;;;8377930;28;19904;-63
2021/10/29 20:25:41;;;;;;;;;;;7.40;99.90;;;;;;8395486;28;19916;-63
2021/10/29 20:29:41;;;;;;;;;;;7.30;99.90;;;;;;8377972;28;20343;-63
2021/10/29 20:33:42;;;;;;;;;;;7.30;99.90;;;;;;8395848;28;19904;-64
2021/10/29 20:37:42;;;;;;;;;;;7.30;99.90;;;;;;8396553;28;19916;-63
2021/10/29 20:41:43;;;;;;;;;;;7.30;99.90;;;;;;8393635;28;20429;-63
2021/10/29 20:45:44;;;;;;;;;;;7.40;99.90;;;;;;8394079;28;19947;-64
2021/10/29 20:49:45;;;;;;;;;;;7.40;99.90;;;;;;8394554;28;19909;-63
2021/10/29 20:53:45;;;;;;;;;;;7.30;99.90;;;;;;8394307;28;19961;-63
2021/10/29 20:57:46;;;;;;;;;;;7.30;99.90;;;;;;8394461;28;19912;-63
2021/10/29 21:01:47;;;;;;;;;;;7.30;99.90;;;;;;8379129;28;19908;-63
2021/10/29 21:05:47;;;;;;;;;;;7.20;99.90;;;;;;8376850;28;19970;-63
2021/10/29 21:09:54;;;;;;;;;;;7.10;99.90;;;;;;8394565;28;19904;-63
2021/10/29 21:13:55;;;;;;;;;;;7.00;99.90;;;;;;8394259;28;19936;-62
2021/10/29 21:17:55;;;;;;;;;;;7.10;99.90;;;;;;8394418;28;20291;-63
2021/10/29 21:21:56;;;;;;;;;;;7.10;99.90;;;;;;8376359;28;19908;-63
2021/10/29 21:25:56;;;;;;;;;;;6.90;99.90;;;;;;8377132;28;19919;-63
2021/10/29 21:29:57;;;;;;;;;;;6.90;99.90;;;;;;8394452;28;19911;-62
2021/10/29 21:33:57;;;;;;;;;;;6.80;99.90;;;;;;8395060;28;19987;-63
2021/10/29 21:37:58;;;;;;;;;;;6.80;99.90;;;;;;8394596;28;20391;-63
2021/10/29 21:41:58;;;;;;;;;;;6.70;99.90;;;;;;8394348;28;19991;-63
2021/10/29 21:45:59;;;;;;;;;;;6.80;99.90;;;;;;8394544;28;19934;-63
2021/10/29 21:50:00;;;;;;;;;;;6.70;99.90;;;;;;8394015;28;19911;-64
2021/10/29 21:54:01;;;;;;;;;;;6.80;99.90;;;;;;8375919;28;19912;-62
2021/10/29 21:58:02;;;;;;;;;;;6.80;99.90;;;;;;8393904;28;19908;-63
2021/10/29 22:02:03;;;;;;;;;;;6.80;99.90;;;;;;8392027;28;19934;-63
2021/10/29 22:06:04;;;;;;;;;;;6.90;99.90;;;;;;8391163;28;19904;-63
2021/10/29 22:10:04;;;;;;;;;;;6.70;99.90;;;;;;8390762;28;19912;-63
2021/10/29 22:14:05;;;;;;;;;;;6.70;99.90;;;;;;8390832;28;19949;-63
2021/10/29 22:18:06;;;;;;;;;;;6.60;99.90;;;;;;8392395;28;20022;-63
2021/10/29 22:22:06;;;;;;;;;;;6.60;99.90;;;;;;8393293;28;19908;-63
2021/10/29 22:26:07;;;;;;;;;;;6.70;99.90;;;;;;8393293;28;19947;-63
2021/10/29 22:30:08;;;;;;;;;;;6.70;99.90;;;;;;8392989;28;19904;-62
2021/10/29 22:34:09;;;;;;;;;;;6.60;99.90;;;;;;8374687;28;19989;-63
2021/10/29 22:38:09;;;;;;;;;;;6.60;99.90;;;;;;8393051;28;20372;-62
2021/10/29 22:42:10;;;;;;;;;;;6.50;99.90;;;;;;8374906;28;19958;-63
2021/10/29 22:46:11;;;;;;;;;;;6.40;99.90;;;;;;8392890;28;19911;-62
2021/10/29 22:50:11;;;;;;;;;;;6.30;99.90;;;;;;8392699;28;19912;-62
2021/10/29 22:54:12;;;;;;;;;;;6.50;99.90;;;;;;8392851;28;19958;-62
2021/10/29 22:58:13;;;;;;;;;;;6.40;99.90;;;;;;8392602;28;19966;-62
2021/10/29 23:02:14;;;;;;;;;;;6.20;99.90;;;;;;8374749;28;19999;-63
2021/10/29 23:06:14;;;;;;;;;;;6.20;99.90;;;;;;8374821;28;19904;-62
2021/10/29 23:10:15;;;;;;;;;;;6.10;99.90;;;;;;8392536;28;19904;-62
2021/10/29 23:14:15;;;;;;;;;;;6.10;99.90;;;;;;8392596;28;20441;-62
2021/10/29 23:18:17;;;;;;;;;;;6.10;99.90;;;;;;8392400;28;20655;-62
2021/10/29 23:22:17;;;;;;;;;;;6.00;99.90;;;;;;8392218;28;19908;-63
2021/10/29 23:26:18;;;;;;;;;;;5.90;99.90;;;;;;8392149;28;19920;-63
2021/10/29 23:30:18;;;;;;;;;;;5.90;99.90;;;;;;8358149;28;19991;-63
2021/10/29 23:34:19;;;;;;;;;;;6.00;99.90;;;;;;8358974;28;19931;-62
2021/10/29 23:38:19;;;;;;;;;;;5.90;99.90;;;;;;8359003;28;20428;-62
2021/10/29 23:42:20;;;;;;;;;;;6.10;99.90;;;;;;8358897;28;19912;-63
2021/10/29 23:46:20;;;;;;;;;;;5.90;99.90;;;;;;8364426;28;19905;-63
2021/10/29 23:50:21;;;;;;;;;;;5.90;99.90;;;;;;8364748;28;19943;-62
2021/10/29 23:54:22;;;;;;;;;;;5.80;99.90;;;;;;8364803;28;19904;-62
2021/10/29 23:58:23;;;;;;;;;;;5.60;99.90;;;;;;8381487;28;19962;-62
